createdAt,value
2018-07-25T00:03:06.400Z,25.90
2018-07-25T00:08:03.249Z,25.65
2018-07-25T00:12:58.667Z,25.50
2018-07-25T00:17:54.533Z,25.40
2018-07-25T00:22:50.516Z,25.33
2018-07-25T00:27:46.321Z,25.46
2018-07-25T00:32:42.270Z,25.23
2018-07-25T00:37:38.107Z,25.07
2018-07-25T00:42:34.575Z,25.10
2018-07-25T00:47:30.520Z,24.92
2018-07-25T00:52:26.263Z,24.70
2018-07-25T00:57:22.064Z,24.60
2018-07-25T01:02:18.124Z,24.61
2018-07-25T01:07:14.374Z,24.47
2018-07-25T01:12:10.215Z,24.29
2018-07-25T01:17:07.025Z,24.24
2018-07-25T01:22:03.441Z,24.13
2018-07-25T01:26:59.189Z,24.06
2018-07-25T01:31:55.275Z,23.99
2018-07-25T01:36:51.214Z,24.03
2018-07-25T01:41:48.295Z,23.86
2018-07-25T01:46:43.997Z,23.96
2018-07-25T01:51:41.000Z,23.76
2018-07-25T01:56:36.462Z,23.61
2018-07-25T02:01:33.373Z,23.51
2018-07-25T02:06:28.945Z,23.43
2018-07-25T02:11:24.860Z,23.28
2018-07-25T02:16:20.490Z,23.32
2018-07-25T02:21:16.626Z,23.27
2018-07-25T02:26:12.642Z,23.24
2018-07-25T02:31:08.563Z,23.28
2018-07-25T02:36:04.995Z,23.21
2018-07-25T02:41:00.954Z,23.17
2018-07-25T02:45:56.688Z,23.03
2018-07-25T02:50:53.807Z,23.05
2018-07-25T02:55:49.344Z,23.10
2018-07-25T03:00:46.361Z,23.08
2018-07-25T03:05:41.951Z,22.88
2018-07-25T03:10:37.788Z,22.72
2018-07-25T03:15:33.519Z,22.80
2018-07-25T03:20:29.951Z,22.84
2018-07-25T03:25:25.895Z,22.66
2018-07-25T03:30:21.799Z,22.76
2018-07-25T03:35:17.816Z,22.60
2018-07-25T03:40:14.037Z,22.50
2018-07-25T03:45:10.811Z,22.44
2018-07-25T03:50:06.503Z,22.35
2018-07-25T03:55:02.460Z,22.22
2018-07-25T03:59:59.224Z,22.20
2018-07-25T04:04:54.821Z,22.11
2018-07-25T04:09:50.695Z,22.14
2018-07-25T04:14:47.726Z,22.07
2018-07-25T04:19:44.542Z,22.08
2018-07-25T04:24:41.473Z,21.96
2018-07-25T04:29:37.081Z,21.93
2018-07-25T04:34:33.016Z,22.48
2018-07-25T04:39:29.458Z,23.00
2018-07-25T04:44:27.018Z,23.63
2018-07-25T04:49:23.098Z,23.96
2018-07-25T04:54:19.867Z,24.51
2018-07-25T04:59:16.553Z,23.99
2018-07-25T05:04:12.568Z,23.71
2018-07-25T05:09:08.645Z,24.61
2018-07-25T05:14:06.502Z,25.59
2018-07-25T05:19:02.541Z,25.69
2018-07-25T05:23:59.206Z,25.66
2018-07-25T05:28:56.017Z,25.50
2018-07-25T05:33:52.009Z,25.47
2018-07-25T05:38:49.076Z,25.59
2018-07-25T05:43:45.815Z,25.70
2018-07-25T05:48:41.441Z,25.85
2018-07-25T05:53:37.462Z,25.69
2018-07-25T05:58:33.863Z,26.51
2018-07-25T06:03:31.472Z,26.62
2018-07-25T06:08:27.716Z,25.65
2018-07-25T06:13:23.377Z,25.40
2018-07-25T06:18:18.975Z,25.36
2018-07-25T06:23:15.674Z,25.33
2018-07-25T06:28:11.120Z,25.08
2018-07-25T06:33:06.800Z,25.18
2018-07-25T06:38:03.036Z,25.17
2018-07-25T06:42:58.936Z,25.13
2018-07-25T06:47:54.947Z,25.40
2018-07-25T06:52:50.972Z,25.47
2018-07-25T06:57:46.976Z,25.58
2018-07-25T07:02:43.170Z,25.65
2018-07-25T07:07:39.236Z,25.85
2018-07-25T07:12:36.254Z,25.66
2018-07-25T07:17:31.885Z,25.83
2018-07-25T07:22:27.950Z,26.09
2018-07-25T07:27:24.299Z,26.16
2018-07-25T07:32:20.471Z,26.29
2018-07-25T07:37:16.939Z,26.34
2018-07-25T07:42:14.400Z,26.44
2018-07-25T07:47:10.271Z,26.52
2018-07-25T07:52:06.807Z,26.90
2018-07-25T07:57:03.456Z,27.89
2018-07-25T08:02:02.483Z,29.68
2018-07-25T08:07:02.467Z,30.99
2018-07-25T08:12:00.455Z,31.96
2018-07-25T08:16:58.233Z,33.07
2018-07-25T08:21:56.636Z,32.46
2018-07-25T08:26:53.218Z,31.89
2018-07-25T08:31:49.531Z,32.03
2018-07-25T08:36:45.801Z,32.33
2018-07-25T08:41:42.522Z,33.22
2018-07-25T08:46:39.229Z,33.09
2018-07-25T08:51:35.871Z,34.43
2018-07-25T08:56:32.355Z,33.89
2018-07-25T09:01:28.661Z,33.61
2018-07-25T09:06:26.259Z,33.64
2018-07-25T09:11:21.977Z,33.64
2018-07-25T09:16:18.651Z,35.52
2018-07-25T09:21:16.531Z,35.39
2018-07-25T09:26:13.046Z,36.54
2018-07-25T09:31:09.843Z,36.16
2018-07-25T09:36:06.104Z,35.08
2018-07-25T09:41:02.069Z,34.86
2018-07-25T09:45:59.248Z,35.14
2018-07-25T09:50:55.110Z,36.36
2018-07-25T09:55:53.209Z,36.91
2018-07-25T10:00:50.524Z,37.28
2018-07-25T10:05:46.980Z,37.93
2018-07-25T10:10:44.698Z,37.21
2018-07-25T10:15:40.172Z,35.68
2018-07-25T10:20:37.497Z,36.88
2018-07-25T10:25:34.047Z,38.20
2018-07-25T10:30:32.790Z,36.54
2018-07-25T10:35:28.338Z,37.40
2018-07-25T10:40:24.777Z,38.08
2018-07-25T10:45:21.543Z,38.38
2018-07-25T10:50:17.908Z,38.67
2018-07-25T10:55:14.882Z,37.13
2018-07-25T11:00:11.702Z,36.83
2018-07-25T11:05:07.396Z,37.02
2018-07-25T11:10:05.077Z,38.48
2018-07-25T11:15:02.712Z,39.00
2018-07-25T11:20:00.415Z,37.70
2018-07-25T11:24:56.627Z,38.82
2018-07-25T11:29:53.388Z,38.24
2018-07-25T11:34:49.452Z,37.70
2018-07-25T11:39:45.886Z,38.92
2018-07-25T11:44:42.478Z,38.82
2018-07-25T11:49:39.522Z,40.30
2018-07-25T11:54:36.591Z,41.34
2018-07-25T11:59:33.505Z,40.97
2018-07-25T12:04:30.036Z,41.03
2018-07-25T12:09:27.621Z,41.36
2018-07-25T12:14:23.502Z,40.33
2018-07-25T12:19:17.951Z,39.15
2018-07-25T12:24:10.190Z,37.51
2018-07-25T12:29:06.325Z,36.01
2018-07-25T12:34:01.379Z,36.04
2018-07-25T12:38:56.154Z,35.42
2018-07-25T12:43:52.989Z,36.36
2018-07-25T12:48:53.998Z,37.84
2018-07-25T12:53:47.474Z,36.21
2018-07-25T12:58:41.767Z,35.88
2018-07-25T13:03:37.017Z,35.33
2018-07-25T13:08:33.508Z,35.95
2018-07-25T13:13:30.226Z,36.57
2018-07-25T13:18:25.928Z,36.27
2018-07-25T13:23:21.682Z,36.04
2018-07-25T13:28:19.263Z,37.58
2018-07-25T13:33:15.740Z,37.21
2018-07-25T13:38:13.894Z,38.73
2018-07-25T13:43:11.749Z,39.80
2018-07-25T13:48:08.365Z,39.58
2018-07-25T13:53:04.914Z,39.21
2018-07-25T13:58:00.858Z,37.08
2018-07-25T14:02:55.588Z,36.14
2018-07-25T14:07:50.994Z,36.01
2018-07-25T14:12:47.465Z,36.01
2018-07-25T14:17:43.937Z,35.73
2018-07-25T14:22:39.986Z,35.76
2018-07-25T14:27:35.537Z,35.64
2018-07-25T14:32:31.258Z,35.26
2018-07-25T14:37:27.821Z,34.93
2018-07-25T14:42:23.250Z,34.48
2018-07-25T14:47:18.873Z,34.25
2018-07-25T14:52:14.715Z,34.18
2018-07-25T14:57:11.728Z,33.96
2018-07-25T15:02:07.694Z,33.81
2018-07-25T15:07:04.836Z,33.83
2018-07-25T15:12:00.598Z,33.68
2018-07-25T15:16:56.504Z,33.74
2018-07-25T15:21:52.816Z,33.73
2018-07-25T15:26:49.040Z,33.74
2018-07-25T15:31:45.152Z,33.59
2018-07-25T15:36:41.071Z,33.53
2018-07-25T15:41:38.840Z,33.52
2018-07-25T15:46:34.606Z,33.08
2018-07-25T15:51:30.531Z,32.64
2018-07-25T15:56:27.615Z,32.41
2018-07-25T16:01:23.958Z,32.22
2018-07-25T16:06:19.991Z,32.23
2018-07-25T16:11:16.384Z,32.31
2018-07-25T16:16:12.243Z,32.22
2018-07-25T16:21:08.213Z,32.07
2018-07-25T16:26:04.167Z,31.87
2018-07-25T16:31:00.218Z,31.44
2018-07-25T16:35:57.004Z,31.05
2018-07-25T16:40:53.001Z,31.03
2018-07-25T16:45:48.947Z,30.90
2018-07-25T16:50:44.855Z,30.83
2018-07-25T16:55:41.976Z,30.72
2018-07-25T17:00:37.507Z,30.66
2018-07-25T17:05:33.443Z,30.61
2018-07-25T17:10:29.357Z,30.53
2018-07-25T17:15:25.573Z,30.37
2018-07-25T17:20:21.671Z,29.98
2018-07-25T17:25:17.556Z,29.65
2018-07-25T17:30:13.688Z,29.61
2018-07-25T17:35:10.511Z,29.35
2018-07-25T17:40:07.338Z,29.27
2018-07-25T17:45:03.820Z,29.24
2018-07-25T17:49:59.859Z,28.93
2018-07-25T17:54:55.891Z,28.69
2018-07-25T17:59:52.787Z,28.66
2018-07-25T18:04:49.718Z,28.64
2018-07-25T18:09:45.755Z,28.66
2018-07-25T18:14:42.740Z,28.45
2018-07-25T18:19:40.007Z,28.48
2018-07-25T18:24:35.928Z,28.51
2018-07-25T18:29:32.013Z,28.38
2018-07-25T18:34:28.185Z,28.26
2018-07-25T18:39:25.053Z,28.08
2018-07-25T18:44:20.853Z,28.07
2018-07-25T18:49:18.103Z,27.89
2018-07-25T18:54:13.543Z,27.82
2018-07-25T18:59:10.900Z,27.71
2018-07-25T19:04:06.280Z,27.55
2018-07-25T19:09:02.368Z,27.20
2018-07-25T19:13:58.208Z,27.29
2018-07-25T19:18:54.124Z,27.02
2018-07-25T19:23:50.018Z,27.12
2018-07-25T19:28:46.157Z,27.14
2018-07-25T19:33:43.654Z,27.07
2018-07-25T19:38:39.410Z,27.02
2018-07-25T19:43:37.513Z,26.84
2018-07-25T19:48:33.422Z,26.97
2018-07-25T19:53:29.463Z,26.88
2018-07-25T19:58:26.640Z,26.81
2018-07-25T20:03:22.538Z,26.59
2018-07-25T20:08:18.585Z,26.58
2018-07-25T20:13:14.539Z,26.53
2018-07-25T20:18:10.740Z,26.45
2018-07-25T20:23:06.779Z,26.36
2018-07-25T20:28:03.012Z,26.15
2018-07-25T20:32:59.950Z,26.05
2018-07-25T20:37:55.565Z,26.03
2018-07-25T20:42:52.340Z,25.84
2018-07-25T20:47:48.859Z,25.81
2018-07-25T20:52:44.961Z,25.66
2018-07-25T20:57:40.813Z,25.55
2018-07-25T21:02:36.909Z,25.51
2018-07-25T21:07:33.213Z,25.53
2018-07-25T21:12:29.001Z,25.51
2018-07-25T21:17:24.983Z,25.40
2018-07-25T21:22:20.891Z,25.32
2018-07-25T21:27:16.711Z,25.16
2018-07-25T21:32:12.981Z,25.17
2018-07-25T21:37:08.755Z,25.28
2018-07-25T21:42:04.806Z,25.26
2018-07-25T21:47:00.821Z,25.21
2018-07-25T21:51:56.731Z,25.07
2018-07-25T21:56:52.624Z,25.06
2018-07-25T22:01:48.661Z,25.04
2018-07-25T22:06:44.513Z,25.10
2018-07-25T22:11:40.655Z,24.98
2018-07-25T22:16:36.609Z,24.95
2018-07-25T22:21:32.490Z,24.96
2018-07-25T22:26:28.529Z,24.89
2018-07-25T22:31:24.438Z,24.88
2018-07-25T22:36:21.682Z,24.81
2018-07-25T22:41:18.440Z,24.86
2018-07-25T22:46:14.202Z,24.68
2018-07-25T22:51:11.155Z,24.84
2018-07-25T22:56:06.668Z,24.74
2018-07-25T23:01:03.927Z,24.65
2018-07-25T23:05:59.638Z,24.61
2018-07-25T23:10:56.636Z,24.54
2018-07-25T23:15:52.381Z,24.84
2018-07-25T23:20:48.392Z,24.68
2018-07-25T23:25:44.264Z,24.61
2018-07-25T23:30:40.694Z,24.47
2018-07-25T23:35:36.566Z,24.26
2018-07-25T23:40:32.510Z,24.32
2018-07-25T23:45:28.480Z,24.36
2018-07-25T23:50:25.488Z,24.26
2018-07-25T23:55:20.996Z,24.30
